createdAt,value
2019-03-20T00:00:03.170Z,-1.1
2019-03-20T00:01:03.333Z,-1.2
2019-03-20T00:02:03.507Z,-1.1
2019-03-20T00:03:03.531Z,-1
2019-03-20T00:04:03.592Z,-1.1
2019-03-20T00:05:03.848Z,-1.1
2019-03-20T00:06:02.760Z,-1.1
2019-03-20T00:07:03.556Z,-1.1
2019-03-20T00:08:03.004Z,-1.2
2019-03-20T00:09:03.319Z,-1.1
2019-03-20T00:10:03.129Z,-1.1
2019-03-20T00:11:03.613Z,-1.1
2019-03-20T00:12:02.904Z,-1.2
2019-03-20T00:13:03.722Z,-1.2
2019-03-20T00:14:02.875Z,-1.2
2019-03-20T00:15:03.156Z,-1.1
2019-03-20T00:16:03.044Z,-1.2
2019-03-20T00:17:04.079Z,-1.2
2019-03-20T00:18:03.235Z,-1.2
2019-03-20T00:19:02.905Z,-1.2
2019-03-20T00:20:03.557Z,-1.4
2019-03-20T00:21:03.405Z,-1.5
2019-03-20T00:22:03.369Z,-1.6
2019-03-20T00:23:03.440Z,-1.5
2019-03-20T00:24:02.844Z,-1.4
2019-03-20T00:25:02.925Z,-1.4
2019-03-20T00:26:02.826Z,-1.4
2019-03-20T00:27:03.192Z,-1.6
2019-03-20T00:28:03.133Z,-1.8
2019-03-20T00:29:03.545Z,-1.8
2019-03-20T00:30:03.125Z,-1.7
2019-03-20T00:31:02.702Z,-1.6
2019-03-20T00:32:03.427Z,-1.5
2019-03-20T00:33:03.329Z,-1.5
2019-03-20T00:34:03.605Z,-1.4
2019-03-20T00:35:03.010Z,-1.4
2019-03-20T00:36:02.829Z,-1.4
2019-03-20T00:37:02.771Z,-1.4
2019-03-20T00:38:03.439Z,-1.3
2019-03-20T00:39:03.695Z,-1.4
2019-03-20T00:40:03.197Z,-1.4
2019-03-20T00:41:02.670Z,-1.3
2019-03-20T00:42:03.706Z,-1.3
2019-03-20T00:43:03.117Z,-1.3
2019-03-20T00:44:03.469Z,-1.3
2019-03-20T00:45:03.371Z,-1.3
2019-03-20T00:46:03.556Z,-1.3
2019-03-20T00:47:02.978Z,-1.3
2019-03-20T00:48:03.452Z,-1.4
2019-03-20T00:49:03.126Z,-1.4
2019-03-20T00:50:03.262Z,-1.3
2019-03-20T00:51:02.925Z,-1.3
2019-03-20T00:52:02.955Z,-1.3
2019-03-20T00:53:03.496Z,-1.3
2019-03-20T00:54:03.201Z,-1.3
2019-03-20T00:55:03.594Z,-1.4
2019-03-20T00:56:02.791Z,-1.3
2019-03-20T00:57:03.482Z,-1.3
2019-03-20T00:58:02.957Z,-1.3
2019-03-20T00:59:03.147Z,-1.4
2019-03-20T01:00:03.170Z,-1.4
2019-03-20T01:01:03.066Z,-1.4
2019-03-20T01:02:03.265Z,-1.4
2019-03-20T01:03:02.872Z,-1.4
2019-03-20T01:04:03.042Z,-1.4
2019-03-20T01:05:12.106Z,-1.4
2019-03-20T01:06:02.989Z,-1.4
2019-03-20T01:07:02.894Z,-1.4
2019-03-20T01:08:02.889Z,-1.4
2019-03-20T01:09:02.937Z,-1.4
2019-03-20T01:10:02.944Z,-1.3
2019-03-20T01:11:03.179Z,-1.4
2019-03-20T01:12:03.075Z,-1.3
2019-03-20T01:13:02.882Z,-1.4
2019-03-20T01:14:02.758Z,-1.4
2019-03-20T01:15:03.216Z,-1.4
2019-03-20T01:16:02.813Z,-1.4
2019-03-20T01:17:02.939Z,-1.4
2019-03-20T01:18:02.797Z,-1.3
2019-03-20T01:19:02.975Z,-1.3
2019-03-20T01:20:02.965Z,-1.3
2019-03-20T01:21:03.843Z,-1.3
2019-03-20T01:22:03.695Z,-1.4
2019-03-20T01:23:03.184Z,-1.4
2019-03-20T01:24:02.898Z,-1.5
2019-03-20T01:25:02.961Z,-1.5
2019-03-20T01:26:02.825Z,-1.6
2019-03-20T01:27:02.821Z,-1.5
2019-03-20T01:28:03.599Z,-1.5
2019-03-20T01:29:03.740Z,-1.4
2019-03-20T01:30:03.492Z,-1.4
2019-03-20T01:31:03.467Z,-1.4
2019-03-20T01:32:03.337Z,-1.3
2019-03-20T01:33:03.364Z,-1.4
2019-03-20T01:34:03.782Z,-1.3
2019-03-20T01:35:03.597Z,-1.3
2019-03-20T01:36:03.518Z,-1.3
2019-03-20T01:37:03.721Z,-1.3
2019-03-20T01:38:03.339Z,-1.3
2019-03-20T01:39:03.223Z,-1.4
2019-03-20T01:40:03.485Z,-1.6
2019-03-20T01:41:03.407Z,-1.7
2019-03-20T01:42:03.219Z,-1.7
2019-03-20T01:43:03.311Z,-1.8
2019-03-20T01:44:03.287Z,-1.8
2019-03-20T01:45:03.086Z,-1.8
2019-03-20T01:46:03.458Z,-1.7
2019-03-20T01:47:03.163Z,-1.8
2019-03-20T01:48:03.450Z,-1.7
2019-03-20T01:49:03.206Z,-1.7
2019-03-20T01:50:03.375Z,-1.7
2019-03-20T01:51:03.285Z,-1.7
2019-03-20T01:52:03.166Z,-1.8
2019-03-20T01:53:03.268Z,-1.8
2019-03-20T01:54:03.662Z,-1.8
2019-03-20T01:55:03.303Z,-1.7
2019-03-20T01:56:03.238Z,-1.7
2019-03-20T01:57:03.327Z,-1.7
2019-03-20T01:58:03.244Z,-1.6
2019-03-20T01:59:03.143Z,-1.6
2019-03-20T02:00:03.105Z,-1.7
2019-03-20T02:01:02.806Z,-1.7
2019-03-20T02:02:02.841Z,-1.6
2019-03-20T02:03:02.761Z,-1.6
2019-03-20T02:04:02.721Z,-1.6
2019-03-20T02:05:02.784Z,-1.6
2019-03-20T02:06:02.671Z,-1.7
2019-03-20T02:07:03.084Z,-1.7
2019-03-20T02:08:03.016Z,-1.6
2019-03-20T02:09:02.816Z,-1.6
2019-03-20T02:10:03.151Z,-1.6
2019-03-20T02:11:02.970Z,-1.6
2019-03-20T02:12:02.834Z,-1.6
2019-03-20T02:13:02.982Z,-1.6
2019-03-20T02:14:02.929Z,-1.6
2019-03-20T02:15:03.243Z,-1.6
2019-03-20T02:16:02.547Z,-1.6
2019-03-20T02:17:02.969Z,-1.6
2019-03-20T02:18:02.869Z,-1.6
2019-03-20T02:19:03.080Z,-1.6
2019-03-20T02:20:02.837Z,-1.6
2019-03-20T02:21:02.891Z,-1.6
2019-03-20T02:22:03.010Z,-1.6
2019-03-20T02:23:02.637Z,-1.6
2019-03-20T02:24:02.903Z,-1.6
2019-03-20T02:25:03.569Z,-1.6
2019-03-20T02:26:03.453Z,-1.6
2019-03-20T02:27:03.485Z,-1.6
2019-03-20T02:28:02.952Z,-1.6
2019-03-20T02:29:03.698Z,-1.6
2019-03-20T02:30:02.661Z,-1.8
2019-03-20T02:31:02.865Z,-1.9
2019-03-20T02:32:02.709Z,-1.9
2019-03-20T02:33:02.717Z,-1.9
2019-03-20T02:34:02.907Z,-1.9
2019-03-20T02:35:03.089Z,-1.8
2019-03-20T02:36:03.696Z,-1.8
2019-03-20T02:37:02.969Z,-1.9
2019-03-20T02:38:03.719Z,-1.9
2019-03-20T02:39:02.700Z,-1.9
2019-03-20T02:40:02.858Z,-2
2019-03-20T02:41:03.023Z,-2.1
2019-03-20T02:42:02.879Z,-2.1
2019-03-20T02:43:03.597Z,-1.9
2019-03-20T02:44:02.798Z,-2
2019-03-20T02:45:02.609Z,-2.1
2019-03-20T02:46:02.585Z,-2.1
2019-03-20T02:47:03.531Z,-2.2
2019-03-20T02:48:03.735Z,-2.2
2019-03-20T02:49:03.549Z,-2.1
2019-03-20T02:50:03.670Z,-2.1
2019-03-20T02:51:03.463Z,-2.1
2019-03-20T02:52:04.181Z,-2.1
2019-03-20T02:53:04.088Z,-2.2
2019-03-20T02:54:03.557Z,-2.1
2019-03-20T02:55:03.762Z,-2.1
2019-03-20T02:56:03.563Z,-2
2019-03-20T02:57:03.450Z,-2.1
2019-03-20T02:58:03.772Z,-2.1
2019-03-20T02:59:02.680Z,-2
2019-03-20T03:00:03.869Z,-2.2
2019-03-20T03:01:02.675Z,-2.1
2019-03-20T03:02:02.904Z,-2.1
2019-03-20T03:03:03.475Z,-2.3
2019-03-20T03:04:03.270Z,-2.3
2019-03-20T03:05:03.601Z,-2.3
2019-03-20T03:06:06.951Z,-2.3
2019-03-20T03:07:03.279Z,-2.3
2019-03-20T03:08:03.511Z,-2.3
2019-03-20T03:09:03.466Z,-2.1
2019-03-20T03:10:03.511Z,-2.1
2019-03-20T03:11:03.254Z,-2
2019-03-20T03:12:03.678Z,-2
2019-03-20T03:13:03.560Z,-1.9
2019-03-20T03:14:03.443Z,-2.1
2019-03-20T03:15:02.682Z,-2
2019-03-20T03:16:03.208Z,-2.1
2019-03-20T03:17:03.423Z,-2.1
2019-03-20T03:18:03.477Z,-2.1
2019-03-20T03:19:03.276Z,-2.1
2019-03-20T03:20:03.479Z,-2.1
2019-03-20T03:21:03.466Z,-2.1
2019-03-20T03:22:03.383Z,-2.1
2019-03-20T03:23:03.346Z,-2.1
2019-03-20T03:24:03.369Z,-2.3
2019-03-20T03:25:03.362Z,-2.3
2019-03-20T03:26:03.363Z,-2.3
2019-03-20T03:27:03.146Z,-2.2
2019-03-20T03:28:03.334Z,-2.2
2019-03-20T03:29:03.298Z,-2.2
2019-03-20T03:30:03.432Z,-2.3
2019-03-20T03:31:03.272Z,-2.2
2019-03-20T03:32:03.271Z,-2.2
2019-03-20T03:33:03.466Z,-2.1
2019-03-20T03:34:03.135Z,-2.1
2019-03-20T03:35:03.327Z,-2.1
2019-03-20T03:36:03.473Z,-2.1
2019-03-20T03:37:03.433Z,-2.1
2019-03-20T03:38:03.447Z,-2
2019-03-20T03:39:03.470Z,-2
2019-03-20T03:40:03.443Z,-1.9
2019-03-20T03:41:03.175Z,-1.9
2019-03-20T03:42:02.893Z,-2.1
2019-03-20T03:43:03.198Z,-2.2
2019-03-20T03:44:02.895Z,-2.2
2019-03-20T03:45:03.092Z,-2.2
2019-03-20T03:46:03.098Z,-2.1
2019-03-20T03:47:03.217Z,-2.2
2019-03-20T03:48:03.071Z,-2.2
2019-03-20T03:49:02.824Z,-2.1
2019-03-20T03:50:03.395Z,-2.1
2019-03-20T03:51:03.108Z,-2.2
2019-03-20T03:52:03.218Z,-2.2
2019-03-20T03:53:03.057Z,-2.3
2019-03-20T03:54:02.906Z,-2.3
2019-03-20T03:55:03.017Z,-2.3
2019-03-20T03:56:03.075Z,-2.3
2019-03-20T03:57:03.092Z,-2.3
2019-03-20T03:58:03.077Z,-2.3
2019-03-20T03:59:03.009Z,-2.3
2019-03-20T04:00:02.959Z,-2.3
2019-03-20T04:01:02.875Z,-2.3
2019-03-20T04:02:03.089Z,-2.3
2019-03-20T04:03:02.905Z,-2.3
2019-03-20T04:04:02.960Z,-2.3
2019-03-20T04:05:03.708Z,-2.3
2019-03-20T04:06:02.721Z,-2.3
2019-03-20T04:07:02.766Z,-2.2
2019-03-20T04:08:02.910Z,-2.2
2019-03-20T04:09:03.454Z,-2.1
2019-03-20T04:10:02.721Z,-2
2019-03-20T04:11:02.746Z,-2
2019-03-20T04:12:03.299Z,-2.1
2019-03-20T04:13:03.032Z,-2.1
2019-03-20T04:14:02.691Z,-2.1
2019-03-20T04:15:03.105Z,-2.1
2019-03-20T04:16:02.539Z,-2.1
2019-03-20T04:17:02.974Z,-2.1
2019-03-20T04:18:02.699Z,-2.1
2019-03-20T04:19:02.951Z,-2.1
2019-03-20T04:20:03.476Z,-2.1
2019-03-20T04:21:03.787Z,-2.1
2019-03-20T04:22:02.696Z,-2.1
2019-03-20T04:23:03.654Z,-2.2
2019-03-20T04:24:02.824Z,-2.3
2019-03-20T04:25:03.696Z,-2.4
2019-03-20T04:26:02.846Z,-2.5
2019-03-20T04:27:03.720Z,-2.5
2019-03-20T04:28:03.020Z,-2.4
2019-03-20T04:29:03.465Z,-2.4
2019-03-20T04:30:03.509Z,-2.3
2019-03-20T04:31:03.685Z,-2.3
2019-03-20T04:32:02.825Z,-2.3
2019-03-20T04:33:02.851Z,-2.3
2019-03-20T04:34:03.498Z,-2.5
2019-03-20T04:35:03.720Z,-2.5
2019-03-20T04:36:03.619Z,-2.6
2019-03-20T04:37:03.510Z,-2.5
2019-03-20T04:38:03.384Z,-2.5
2019-03-20T04:39:03.733Z,-2.4
2019-03-20T04:40:03.489Z,-2.5
2019-03-20T04:41:03.721Z,-2.4
2019-03-20T04:42:03.476Z,-2.4
2019-03-20T04:43:02.910Z,-2.5
2019-03-20T04:44:03.488Z,-2.4
2019-03-20T04:45:03.681Z,-2.4
2019-03-20T04:46:03.503Z,-2.4
2019-03-20T04:47:03.380Z,-2.4
2019-03-20T04:48:02.416Z,-2.5
2019-03-20T04:49:03.513Z,-2.5
2019-03-20T04:50:03.738Z,-2.5
2019-03-20T04:51:03.444Z,-2.6
2019-03-20T04:52:03.729Z,-2.6
2019-03-20T04:53:03.418Z,-2.5
2019-03-20T04:54:03.553Z,-2.5
2019-03-20T04:55:03.216Z,-2.5
2019-03-20T04:56:03.362Z,-2.5
2019-03-20T04:57:03.676Z,-2.4
2019-03-20T04:58:02.979Z,-2.5
2019-03-20T04:59:03.456Z,-2.5
2019-03-20T05:00:03.320Z,-2.5
2019-03-20T05:01:03.264Z,-2.5
2019-03-20T05:02:02.999Z,-2.5
2019-03-20T05:03:03.342Z,-2.4
2019-03-20T05:04:03.249Z,-2.4
2019-03-20T05:05:03.455Z,-2.4
2019-03-20T05:06:03.150Z,-2.4
2019-03-20T05:07:03.387Z,-2.4
2019-03-20T05:08:03.049Z,-2.4
2019-03-20T05:09:03.028Z,-2.4
2019-03-20T05:10:03.383Z,-2.3
2019-03-20T05:11:02.813Z,-2.4
2019-03-20T05:12:03.205Z,-2.4
2019-03-20T05:13:02.855Z,-2.5
2019-03-20T05:14:03.010Z,-2.4
2019-03-20T05:15:02.957Z,-2.4
2019-03-20T05:16:03.010Z,-2.4
2019-03-20T05:17:02.924Z,-2.4
2019-03-20T05:18:02.993Z,-2.4
2019-03-20T05:19:02.977Z,-2.4
2019-03-20T05:20:02.725Z,-2.4
2019-03-20T05:21:02.845Z,-2.4
2019-03-20T05:22:02.819Z,-2.3
2019-03-20T05:23:02.884Z,-2.3
2019-03-20T05:24:03.597Z,-2.3
2019-03-20T05:25:03.904Z,-2.4
2019-03-20T05:26:03.614Z,-2.3
2019-03-20T05:27:03.678Z,-2.3
2019-03-20T05:28:03.573Z,-2.3
2019-03-20T05:29:03.735Z,-2.3
2019-03-20T05:30:03.672Z,-2.3
2019-03-20T05:31:03.679Z,-2.3
2019-03-20T05:32:04.584Z,-2.3
2019-03-20T05:33:03.459Z,-2.3
2019-03-20T05:34:03.529Z,-2.3
2019-03-20T05:35:03.532Z,-2.3
2019-03-20T05:36:03.759Z,-2.3
2019-03-20T05:37:11.082Z,-2.3
2019-03-20T05:38:03.727Z,-2.3
2019-03-20T05:39:03.600Z,-2.3
2019-03-20T05:40:03.452Z,-2.3
2019-03-20T05:41:03.448Z,-2.3
2019-03-20T05:42:03.377Z,-2.3
2019-03-20T05:43:03.359Z,-2.2
2019-03-20T05:44:03.610Z,-2.1
2019-03-20T05:45:03.424Z,-2.1
2019-03-20T05:46:02.967Z,-2.2
2019-03-20T05:47:03.590Z,-2.1
2019-03-20T05:48:03.443Z,-2.2
2019-03-20T05:49:03.399Z,-2.2
2019-03-20T05:50:03.443Z,-2.1
2019-03-20T05:51:03.566Z,-2.1
2019-03-20T05:52:03.412Z,-2.1
2019-03-20T05:53:03.390Z,-2.1
2019-03-20T05:54:03.291Z,-2.1
2019-03-20T05:55:03.353Z,-2.1
2019-03-20T05:56:03.248Z,-2
2019-03-20T05:57:03.252Z,-2
2019-03-20T05:58:03.193Z,-2
2019-03-20T05:59:03.162Z,-2.1
2019-03-20T06:00:03.542Z,-2.1
2019-03-20T06:01:02.889Z,-2.1
2019-03-20T06:02:03.328Z,-1.9
2019-03-20T06:03:03.252Z,-1.9
2019-03-20T06:04:03.008Z,-1.9
2019-03-20T06:05:02.982Z,-1.9
2019-03-20T06:06:03.355Z,-1.8
2019-03-20T06:07:03.177Z,-1.8
2019-03-20T06:08:03.167Z,-1.7
2019-03-20T06:09:03.080Z,-1.7
2019-03-20T06:10:03.408Z,-1.8
2019-03-20T06:11:03.361Z,-1.7
2019-03-20T06:12:03.994Z,-1.6
2019-03-20T06:13:03.492Z,-1.5
2019-03-20T06:14:03.624Z,-1.4
2019-03-20T06:15:03.773Z,-1.4
2019-03-20T06:16:03.568Z,-1.4
2019-03-20T06:17:03.873Z,-1.3
2019-03-20T06:18:03.084Z,-1.3
2019-03-20T06:19:03.079Z,-1.3
2019-03-20T06:20:03.303Z,-1.2
2019-03-20T06:21:03.632Z,-1.2
2019-03-20T06:22:03.592Z,-1.1
2019-03-20T06:23:03.223Z,-1.1
2019-03-20T06:24:03.300Z,-1.1
2019-03-20T06:25:02.826Z,-1.1
2019-03-20T06:26:03.468Z,-1
2019-03-20T06:27:03.840Z,-1
2019-03-20T06:28:02.766Z,-0.9
2019-03-20T06:29:03.201Z,-0.7
2019-03-20T06:30:03.033Z,-0.7
2019-03-20T06:31:03.051Z,-0.7
2019-03-20T06:32:03.270Z,-0.7
2019-03-20T06:33:03.128Z,-0.7
2019-03-20T06:34:03.142Z,-0.8
2019-03-20T06:35:03.021Z,-0.7
2019-03-20T06:36:03.065Z,-0.6
2019-03-20T06:37:03.399Z,-0.4
2019-03-20T06:38:03.495Z,-0.4
2019-03-20T06:39:05.182Z,-0.3
2019-03-20T06:40:03.391Z,-0.3
2019-03-20T06:41:02.854Z,-0.2
2019-03-20T06:42:03.170Z,-0.2
2019-03-20T06:43:03.488Z,-0.1
2019-03-20T06:44:02.973Z,-0.1
2019-03-20T06:45:03.428Z,0
2019-03-20T06:46:03.376Z,0
2019-03-20T06:47:03.475Z,0.1
2019-03-20T06:48:03.272Z,0
2019-03-20T06:49:03.468Z,0
2019-03-20T06:50:03.319Z,0.1
2019-03-20T06:51:03.524Z,0.1
2019-03-20T06:52:03.003Z,0.1
2019-03-20T06:53:03.789Z,0.1
2019-03-20T06:54:03.934Z,0.1
2019-03-20T06:55:03.782Z,0.1
2019-03-20T06:56:02.725Z,0.2
2019-03-20T06:57:02.895Z,0.2
2019-03-20T06:58:03.683Z,0.3
2019-03-20T06:59:03.809Z,0.4
2019-03-20T07:00:05.672Z,0.4
2019-03-20T07:01:02.878Z,0.4
2019-03-20T07:02:02.829Z,0.4
2019-03-20T07:03:02.984Z,0.4
2019-03-20T07:04:02.920Z,0.5
2019-03-20T07:05:03.801Z,0.5
2019-03-20T07:06:02.659Z,0.6
2019-03-20T07:07:03.110Z,0.6
2019-03-20T07:08:03.234Z,0.6
2019-03-20T07:09:03.217Z,0.6
2019-03-20T07:10:03.139Z,0.6
2019-03-20T07:11:02.851Z,0.7
2019-03-20T07:12:03.199Z,0.8
2019-03-20T07:13:02.999Z,0.9
2019-03-20T07:14:03.098Z,0.9
2019-03-20T07:15:02.981Z,1
2019-03-20T07:16:03.155Z,1
2019-03-20T07:17:03.015Z,1.1
2019-03-20T07:18:02.964Z,1.1
2019-03-20T07:19:02.902Z,1.1
2019-03-20T07:20:03.133Z,1.3
2019-03-20T07:21:02.862Z,1.4
2019-03-20T07:22:04.083Z,1.5
2019-03-20T07:23:02.960Z,1.6
2019-03-20T07:24:02.840Z,1.5
2019-03-20T07:25:03.031Z,1.6
2019-03-20T07:26:03.043Z,1.6
2019-03-20T07:27:03.705Z,1.8
2019-03-20T07:28:02.921Z,1.8
2019-03-20T07:29:03.791Z,1.9
2019-03-20T07:30:03.683Z,1.9
2019-03-20T07:31:16.125Z,2.1
2019-03-20T07:32:04.158Z,2.2
2019-03-20T07:33:03.630Z,2.2
2019-03-20T07:34:02.830Z,2.1
2019-03-20T07:35:02.717Z,2.2
2019-03-20T07:36:03.614Z,2.3
2019-03-20T07:37:02.831Z,2.3
2019-03-20T07:38:03.577Z,2.3
2019-03-20T07:39:03.721Z,2.3
2019-03-20T07:40:03.382Z,2.4
2019-03-20T07:41:03.368Z,2.3
2019-03-20T07:42:03.440Z,2.4
2019-03-20T07:43:09.553Z,2.5
2019-03-20T07:44:03.534Z,2.6
2019-03-20T07:45:03.668Z,2.7
2019-03-20T07:46:03.512Z,2.7
2019-03-20T07:47:03.475Z,2.8
2019-03-20T07:48:02.817Z,2.9
2019-03-20T07:49:03.645Z,2.8
2019-03-20T07:50:03.537Z,2.9
2019-03-20T07:51:03.640Z,2.9
2019-03-20T07:52:02.676Z,3.1
2019-03-20T07:53:03.533Z,3.1
2019-03-20T07:54:03.675Z,3.2
2019-03-20T07:55:03.583Z,3.3
2019-03-20T07:56:03.634Z,3.4
2019-03-20T07:57:03.598Z,3.6
2019-03-20T07:58:03.714Z,3.6
2019-03-20T07:59:03.635Z,3.6
2019-03-20T08:00:03.382Z,3.6
2019-03-20T08:01:03.372Z,3.6
2019-03-20T08:02:03.186Z,3.6
2019-03-20T08:03:03.362Z,3.8
2019-03-20T08:04:03.422Z,3.9
2019-03-20T08:05:03.608Z,4
2019-03-20T08:06:03.304Z,4.2
2019-03-20T08:07:03.359Z,4.2
2019-03-20T08:08:08.125Z,4.3
2019-03-20T08:09:03.443Z,4.3
2019-03-20T08:10:03.551Z,4.3
2019-03-20T08:11:03.598Z,4.3
2019-03-20T08:12:03.574Z,4.3
2019-03-20T08:13:03.194Z,4.4
2019-03-20T08:14:03.083Z,4.4
2019-03-20T08:15:03.330Z,4.6
2019-03-20T08:16:04.348Z,4.7
2019-03-20T08:17:02.153Z,4.6
2019-03-20T08:18:03.683Z,4.8
2019-03-20T08:19:01.931Z,4.9
2019-03-20T08:20:01.853Z,4.9
2019-03-20T08:21:03.632Z,5
2019-03-20T08:22:03.339Z,5.1
2019-03-20T08:23:03.364Z,5.1
2019-03-20T08:24:03.406Z,5.1
2019-03-20T08:25:03.645Z,5.1
2019-03-20T08:26:03.298Z,5.3
2019-03-20T08:27:03.268Z,5.4
2019-03-20T08:28:03.157Z,5.4
2019-03-20T08:29:03.158Z,5.4
2019-03-20T08:30:03.265Z,5.4
2019-03-20T08:31:03.209Z,5.4
2019-03-20T08:32:03.309Z,5.6
2019-03-20T08:33:03.593Z,5.6
2019-03-20T08:34:03.259Z,5.8
2019-03-20T08:35:03.609Z,5.9
2019-03-20T08:36:03.562Z,5.8
2019-03-20T08:37:03.389Z,5.8
2019-03-20T08:38:03.105Z,5.9
2019-03-20T08:39:03.126Z,5.9
2019-03-20T08:40:03.391Z,6.1
2019-03-20T08:41:03.004Z,6.4
2019-03-20T08:43:18.765Z,6.4
2019-03-20T08:44:03.181Z,6.4
2019-03-20T08:44:14.389Z,6.4
2019-03-20T08:45:03.202Z,6.5
2019-03-20T08:46:03.239Z,6.5
2019-03-20T08:47:03.138Z,6.4
2019-03-20T08:48:03.084Z,6.6
2019-03-20T08:49:03.212Z,6.8
2019-03-20T08:50:02.875Z,7
2019-03-20T08:51:03.008Z,6.6
2019-03-20T08:52:02.963Z,6.4
2019-03-20T08:53:03.282Z,6.5
2019-03-20T08:54:02.943Z,6.8
2019-03-20T08:55:03.106Z,7.1
2019-03-20T08:56:02.605Z,7
2019-03-20T08:57:02.926Z,7
2019-03-20T08:58:35.127Z,7.3
2019-03-20T08:59:18.690Z,7.1
2019-03-20T09:00:03.293Z,6.7
2019-03-20T09:01:02.735Z,7.2
2019-03-20T09:02:02.964Z,7.3
2019-03-20T09:03:02.851Z,7.3
2019-03-20T09:04:02.912Z,7.3
2019-03-20T09:05:02.932Z,7.3
2019-03-20T09:06:03.077Z,7.3
2019-03-20T09:07:03.031Z,7.4
2019-03-20T09:08:03.058Z,7.6
2019-03-20T09:09:03.154Z,7.6
2019-03-20T09:10:03.613Z,7.9
2019-03-20T09:11:03.002Z,8.1
2019-03-20T09:12:02.863Z,8.1
2019-03-20T09:13:02.955Z,8.1
2019-03-20T09:14:03.943Z,7.8
2019-03-20T09:15:03.954Z,7.9
2019-03-20T09:16:03.709Z,8
2019-03-20T09:17:02.871Z,8.1
2019-03-20T09:18:02.887Z,8.3
2019-03-20T09:19:03.245Z,8.1
2019-03-20T09:20:03.847Z,8.1
2019-03-20T09:21:03.389Z,7.8
2019-03-20T09:22:03.301Z,7.8
2019-03-20T09:23:03.462Z,8
2019-03-20T09:24:03.561Z,8
2019-03-20T09:25:03.230Z,7.9
2019-03-20T09:26:03.674Z,7.9
2019-03-20T09:27:03.479Z,7.9
2019-03-20T09:28:03.698Z,8.3
2019-03-20T09:29:03.104Z,8.9
2019-03-20T09:30:03.582Z,8.9
2019-03-20T09:31:03.431Z,8.1
2019-03-20T09:32:03.389Z,8.4
2019-03-20T09:33:03.351Z,8.1
2019-03-20T09:34:03.689Z,8.1
2019-03-20T09:35:03.494Z,8.1
2019-03-20T09:36:03.017Z,8.2
2019-03-20T09:37:03.375Z,8.5
2019-03-20T09:38:03.350Z,8.9
2019-03-20T09:39:03.199Z,8.8
2019-03-20T09:40:03.479Z,8.9
2019-03-20T09:41:03.181Z,8.8
2019-03-20T09:42:03.113Z,8.3
2019-03-20T09:43:03.131Z,8.4
2019-03-20T09:44:03.214Z,8.7
2019-03-20T09:45:03.516Z,8.8
2019-03-20T09:46:03.119Z,8.8
2019-03-20T09:47:03.117Z,9.1
2019-03-20T09:48:03.325Z,9
2019-03-20T09:49:03.269Z,8.8
2019-03-20T09:50:03.347Z,9.1
2019-03-20T09:51:03.291Z,9.1
2019-03-20T09:52:03.568Z,9.5
2019-03-20T09:53:03.210Z,9.2
2019-03-20T09:54:03.687Z,9.3
2019-03-20T09:55:03.570Z,9.4
2019-03-20T09:56:03.603Z,9.8
2019-03-20T09:57:03.116Z,9.3
2019-03-20T09:58:12.181Z,9.2
2019-03-20T09:59:03.638Z,9.4
2019-03-20T10:00:03.298Z,9.1
2019-03-20T10:01:03.384Z,8.9
2019-03-20T10:02:03.302Z,9.4
2019-03-20T10:03:03.511Z,9.5
2019-03-20T10:04:03.097Z,9.9
2019-03-20T10:05:03.405Z,10.2
2019-03-20T10:06:03.133Z,10.4
2019-03-20T10:07:03.085Z,10.9
2019-03-20T10:08:02.837Z,11.1
2019-03-20T10:09:03.440Z,10.9
2019-03-20T10:10:03.669Z,10.5
2019-03-20T10:11:03.358Z,10.3
2019-03-20T10:12:03.459Z,9.8
2019-03-20T10:13:03.305Z,9.4
2019-03-20T10:14:03.204Z,8.8
2019-03-20T10:15:03.548Z,8.7
2019-03-20T10:16:03.235Z,9.1
2019-03-20T10:17:02.977Z,9.1
2019-03-20T10:18:03.331Z,9.1
2019-03-20T10:19:03.002Z,8.9
2019-03-20T10:21:02.821Z,9.1
2019-03-20T10:22:03.417Z,9.3
2019-03-20T10:22:17.240Z,8.9
2019-03-20T10:23:03.235Z,9.3
2019-03-20T10:24:03.331Z,9.1
2019-03-20T10:25:02.940Z,9
2019-03-20T10:26:03.114Z,9.1
2019-03-20T10:27:03.020Z,9.5
2019-03-20T10:28:02.939Z,10.2
2019-03-20T10:29:03.223Z,10.2
2019-03-20T10:30:02.891Z,10.2
2019-03-20T10:31:03.183Z,10.3
2019-03-20T10:32:03.163Z,10.1
2019-03-20T10:33:02.893Z,10.4
2019-03-20T10:34:02.955Z,10.3
2019-03-20T10:35:03.153Z,10.6
2019-03-20T10:36:03.116Z,10.9
2019-03-20T10:37:03.127Z,10.9
2019-03-20T10:38:03.066Z,10.8
2019-03-20T10:39:07.264Z,10.8
2019-03-20T10:40:03.137Z,10.1
2019-03-20T10:41:03.099Z,9.6
2019-03-20T10:42:02.885Z,9.7
2019-03-20T10:43:03.195Z,9.2
2019-03-20T10:44:03.080Z,9.1
2019-03-20T10:45:03.001Z,8.6
2019-03-20T10:46:02.925Z,8.8
2019-03-20T10:47:03.143Z,9.2
2019-03-20T10:48:02.934Z,9.1
2019-03-20T10:49:03.017Z,9
2019-03-20T10:50:03.930Z,9.3
2019-03-20T10:51:03.702Z,9.9
2019-03-20T10:52:03.904Z,10.3
2019-03-20T10:53:03.547Z,9.4
2019-03-20T10:54:03.709Z,9.1
2019-03-20T10:55:03.651Z,9.3
2019-03-20T10:56:03.542Z,9.8
2019-03-20T10:57:03.666Z,9.5
2019-03-20T10:58:03.669Z,9.3
2019-03-20T10:59:03.703Z,9.2
2019-03-20T11:00:03.354Z,9.3
2019-03-20T11:01:03.668Z,9
2019-03-20T11:02:03.244Z,9
2019-03-20T11:03:02.843Z,10.1
2019-03-20T11:04:03.837Z,10.3
2019-03-20T11:05:02.895Z,10.6
2019-03-20T11:06:03.755Z,11
2019-03-20T11:07:02.927Z,10.9
2019-03-20T11:08:03.635Z,10.5
2019-03-20T11:09:03.572Z,9.9
2019-03-20T11:10:02.896Z,10.1
2019-03-20T11:11:02.757Z,9.6
2019-03-20T11:12:03.698Z,9.7
2019-03-20T11:13:03.737Z,9.8
2019-03-20T11:14:03.803Z,10.1
2019-03-20T11:15:03.453Z,10.1
2019-03-20T11:16:03.144Z,10.6
2019-03-20T11:17:03.221Z,10.3
2019-03-20T11:18:03.483Z,10.8
2019-03-20T11:19:03.454Z,11.1
2019-03-20T11:20:03.646Z,11.3
2019-03-20T11:21:03.063Z,11.6
2019-03-20T11:22:03.576Z,11.6
2019-03-20T11:23:03.590Z,11.8
2019-03-20T11:24:03.068Z,11.9
2019-03-20T11:25:03.040Z,11.9
2019-03-20T11:26:03.249Z,11.4
2019-03-20T11:27:03.370Z,10.3
2019-03-20T11:28:03.781Z,10.3
2019-03-20T11:29:03.296Z,10.1
2019-03-20T11:30:03.213Z,9.8
2019-03-20T11:31:03.240Z,9.2
2019-03-20T11:32:03.122Z,9
2019-03-20T11:33:03.229Z,9
2019-03-20T11:34:03.205Z,8.8
2019-03-20T11:35:03.300Z,9.1
2019-03-20T11:36:02.892Z,9.6
2019-03-20T11:37:02.964Z,9.4
2019-03-20T11:38:03.317Z,9.6
2019-03-20T11:39:02.806Z,9.4
2019-03-20T11:40:03.187Z,9.3
2019-03-20T11:41:03.666Z,9.4
2019-03-20T11:42:03.034Z,9.7
2019-03-20T11:43:02.920Z,10.1
2019-03-20T11:44:03.640Z,10.5
2019-03-20T11:45:02.996Z,10.1
2019-03-20T11:46:03.647Z,9.8
2019-03-20T11:47:03.477Z,9.9
2019-03-20T11:48:03.888Z,10.1
2019-03-20T11:49:03.762Z,10.1
2019-03-20T11:50:03.155Z,10.3
2019-03-20T11:51:03.355Z,10.1
2019-03-20T11:52:06.513Z,9.9
2019-03-20T11:53:03.766Z,10.4
2019-03-20T11:54:03.800Z,9.9
2019-03-20T11:55:03.876Z,9.8
2019-03-20T11:56:03.558Z,10.1
2019-03-20T11:57:03.631Z,10.1
2019-03-20T11:58:03.333Z,10.4
2019-03-20T11:59:03.201Z,10.4
2019-03-20T12:00:03.433Z,10.1
2019-03-20T12:01:03.698Z,10.3
2019-03-20T12:02:03.632Z,10.5
2019-03-20T12:03:03.800Z,10.6
2019-03-20T12:04:03.441Z,10.5
2019-03-20T12:05:03.951Z,10.4
2019-03-20T12:06:03.082Z,10.1
2019-03-20T12:07:03.670Z,10.1
2019-03-20T12:08:03.550Z,10.6
2019-03-20T12:09:03.531Z,10.2
2019-03-20T12:10:03.694Z,10.4
2019-03-20T12:11:03.105Z,10.8
2019-03-20T12:12:03.328Z,10.7
2019-03-20T12:13:03.338Z,10.4
2019-03-20T12:14:03.643Z,10.5
2019-03-20T12:15:03.284Z,10.1
2019-03-20T12:16:03.587Z,10.1
2019-03-20T12:17:03.604Z,10.7
2019-03-20T12:18:03.349Z,10.8
2019-03-20T12:19:03.500Z,10.8
2019-03-20T12:20:03.666Z,10.9
2019-03-20T12:21:03.492Z,10.3
2019-03-20T12:22:03.283Z,9.8
2019-03-20T12:23:03.566Z,9.8
2019-03-20T12:24:03.338Z,9.6
2019-03-20T12:25:03.491Z,9.3
2019-03-20T12:26:03.922Z,9.3
2019-03-20T12:27:15.789Z,9.7
2019-03-20T12:28:03.170Z,9.8
2019-03-20T12:29:03.455Z,9.8
2019-03-20T12:30:03.557Z,9.9
2019-03-20T12:31:03.440Z,9.9
2019-03-20T12:32:03.353Z,9.8
2019-03-20T12:33:03.186Z,9.6
2019-03-20T12:34:03.161Z,10.1
2019-03-20T12:35:02.962Z,10.2
2019-03-20T12:36:03.194Z,10.1
2019-03-20T12:37:03.157Z,10.2
2019-03-20T12:38:15.607Z,11
2019-03-20T12:39:02.949Z,11.2
2019-03-20T12:40:03.172Z,10.9
2019-03-20T12:41:02.784Z,10.5
2019-03-20T12:42:02.920Z,10.4
2019-03-20T12:43:03.267Z,10
2019-03-20T12:44:03.898Z,9.9
2019-03-20T12:45:03.113Z,10.2
2019-03-20T12:46:03.819Z,10.1
2019-03-20T12:47:03.996Z,9.5
2019-03-20T12:48:03.579Z,9.9
2019-03-20T12:49:03.675Z,9.9
2019-03-20T12:50:03.539Z,10.2
2019-03-20T12:51:02.744Z,10
2019-03-20T12:52:03.355Z,10.2
2019-03-20T12:53:03.666Z,9.8
2019-03-20T12:54:03.533Z,9.9
2019-03-20T12:55:02.834Z,9.6
2019-03-20T12:56:03.633Z,9.6
2019-03-20T12:57:03.527Z,9.7
2019-03-20T12:58:03.712Z,9.9
2019-03-20T12:59:03.860Z,10.1
2019-03-20T13:00:03.802Z,9.6
2019-03-20T13:01:03.066Z,9.7
2019-03-20T13:02:02.844Z,9.6
2019-03-20T13:03:03.250Z,9.9
2019-03-20T13:04:03.068Z,10.2
2019-03-20T13:05:02.983Z,10.3
2019-03-20T13:06:03.008Z,10.3
2019-03-20T13:07:02.858Z,10.3
2019-03-20T13:08:06.652Z,10.2
2019-03-20T13:09:04.065Z,10.1
2019-03-20T13:10:04.186Z,10.3
2019-03-20T13:11:03.787Z,9.6
2019-03-20T13:12:03.593Z,9.5
2019-03-20T13:13:03.897Z,9.3
2019-03-20T13:14:03.550Z,9.4
2019-03-20T13:15:03.651Z,9.4
2019-03-20T13:16:03.526Z,9.6
2019-03-20T13:17:03.547Z,9.9
2019-03-20T13:18:03.487Z,10.3
2019-03-20T13:19:03.571Z,10.1
2019-03-20T13:20:03.449Z,10
2019-03-20T13:21:03.530Z,10.2
2019-03-20T13:22:03.591Z,10.3
2019-03-20T13:23:03.282Z,10
2019-03-20T13:24:03.246Z,9.6
2019-03-20T13:25:03.784Z,9.9
2019-03-20T13:26:03.725Z,10.4
2019-03-20T13:27:03.373Z,10.4
2019-03-20T13:28:03.523Z,10.3
2019-03-20T13:29:03.193Z,10.3
2019-03-20T13:30:03.480Z,10.3
2019-03-20T13:31:03.377Z,10.4